Flight Track Log - Related Links

Times and Time Zones

All times are in EDT time to prevent confusion due to time zone crossing. See the NKS971 flight status page for this flight to view local times or setup timezone preferences in your user account.

Time Position Orientation Groundspeed Altitude Reporting Facility
EDT Latitude Longitude Course Direction KTS MPH feet Rate Location/Type
Wed 08:26:02 PM 26.0770 -80.1360 91° East 158 182 500  Level FlightAware ADS-B
Wed 08:26:57 PM 26.0790 -80.0870 87° East 197 227 2,000 1,543 Climbing FlightAware ADS-B
Wed 08:27:12 PM 26.0810 -80.0710 82° East 213 245 2,300 1,971 Climbing FlightAware ADS-B
Wed 08:28:07 PM 26.1110 -80.0160 59° Northeast 256 295 4,300 1,835 Climbing FlightAware ADS-B
Wed 08:28:37 PM 26.1460 -80.0230 350° North 260 299 4,900 1,091 Climbing FlightAware ADS-B
Wed 08:29:02 PM 26.1730 -80.0400 331° Northwest 258 297 5,300 1,650 Climbing FlightAware ADS-B
Wed 08:29:17 PM 26.1840 -80.0540 311° West 265 305 6,000 2,933 Climbing FlightAware ADS-B
Wed 08:29:47 PM 26.2000 -80.0920 295° West 276 318 7,500 2,618 Climbing FlightAware ADS-B
Wed 08:30:12 PM 26.2150 -80.1280 295° West 293 337 8,400 1,527 Climbing FlightAware ADS-B
Wed 08:30:42 PM 26.2330 -80.1690 296° West 285 328 8,900 764 Climbing FlightAware ADS-B
Wed 08:31:07 PM 26.2430 -80.2000 290° West 282 325 9,100 1,543 Climbing FlightAware ADS-B
Wed 08:31:52 PM 26.2510 -80.2610 278° West 298 343 10,700 1,553 Climbing FlightAware ADS-B
Wed 08:32:32 PM 26.2610 -80.3310 279° West 349 402 11,300 1,500 Climbing FlightAware ADS-B
Wed 08:33:12 PM 26.2710 -80.4040 279° West 362 417 12,700 2,100 Climbing FlightAware ADS-B
Wed 08:33:52 PM 26.2810 -80.4740 279° West 369 425 14,100 2,118 Climbing FlightAware ADS-B
Wed 08:34:37 PM 26.2980 -80.5650 282° West 380 437 15,700 2,200 Climbing FlightAware ADS-B
Wed 08:34:52 PM 26.3130 -80.5900 304° West 381 438 16,300 2,200 Climbing FlightAware ADS-B
Wed 08:35:37 PM 26.3580 -80.6610 305° West 378 435 17,900 2,047 Climbing FlightAware ADS-B
Wed 08:36:17 PM 26.3990 -80.7270 305° West 382 440 19,200 1,835 Climbing FlightAware ADS-B
Wed 08:37:02 PM 26.4470 -80.8010 306° West 388 447 20,500 1,624 Climbing FlightAware ADS-B
Wed 08:37:42 PM 26.4910 -80.8680 306° West 394 453 21,500 1,412 Climbing FlightAware ADS-B
Wed 08:38:27 PM 26.5390 -80.9430 306° West 401 461 22,500 1,482 Climbing FlightAware ADS-B
Wed 08:39:07 PM 26.5840 -81.0110 307° West 403 464 23,600 1,800 Climbing FlightAware ADS-B
Wed 08:39:47 PM 26.6270 -81.0780 306° West 398 458 24,900 1,482 Climbing FlightAware ADS-B
Wed 08:40:32 PM 26.6740 -81.1520 305° West 403 464 25,700 1,200 Climbing FlightAware ADS-B
Wed 08:41:12 PM 26.7200 -81.2230 306° West 412 474 26,600 1,341 Climbing FlightAware ADS-B
Wed 08:41:57 PM 26.7710 -81.3020 306° West 412 474 27,600 1,200 Climbing FlightAware ADS-B
Wed 08:42:52 PM 26.8290 -81.3950 305° West 413 475 28,600 1,326 Climbing FlightAware ADS-B
Wed 08:43:32 PM 26.8690 -81.4720 300° West 408 470 29,700 1,271 Climbing FlightAware ADS-B
Wed 08:44:17 PM 26.9070 -81.5490 299° West 405 466 30,400 1,059 Climbing FlightAware ADS-B
Wed 08:44:57 PM 26.9480 -81.6310 299° West 408 470 31,200 1,271 Climbing FlightAware ADS-B
Wed 08:45:42 PM 26.9880 -81.7120 299° West 398 458 32,200 1,200 Climbing FlightAware ADS-B
Wed 08:46:22 PM 27.0230 -81.7830 299° West 397 457 32,900 1,050 Climbing FlightAware ADS-B
Wed 08:47:02 PM 27.0600 -81.8570 299° West 396 456 33,600 635 Climbing FlightAware ADS-B
Wed 08:47:47 PM 27.1000 -81.9370 299° West 406 467 33,800 494 Climbing FlightAware ADS-B
Wed 08:48:27 PM 27.1340 -82.0060 299° West 406 467 34,300 825 Climbing FlightAware ADS-B
Wed 08:49:07 PM 27.1730 -82.0850 299° West 406 467 34,900 776 Climbing FlightAware ADS-B
Wed 08:49:52 PM 27.2170 -82.1740 299° West 409 471 35,400 706 Climbing FlightAware ADS-B
Wed 08:50:32 PM 27.2520 -82.2450 299° West 406 467 35,900 424 Climbing FlightAware ADS-B
Wed 08:51:17 PM 27.2940 -82.3310 299° West 388 447 36,000 71 Climbing FlightAware ADS-B
Wed 08:51:57 PM 27.3260 -82.3970 299° West 392 451 36,000  Level FlightAware ADS-B
Wed 08:52:37 PM 27.3620 -82.4710 299° West 397 457 36,000  Level FlightAware ADS-B
Wed 08:53:22 PM 27.3990 -82.5540 297° West 394 453 36,000  Level FlightAware ADS-B
Wed 08:54:02 PM 27.4200 -82.6320 287° West 382 440 36,000  Level FlightAware ADS-B
Wed 08:54:47 PM 27.4360 -82.7200 282° West 379 436 36,000  Level FlightAware ADS-B
Wed 08:55:27 PM 27.4510 -82.7970 282° West 380 437 36,000  Level FlightAware ADS-B
Wed 08:56:12 PM 27.4670 -82.8830 282° West 375 432 36,000  Level FlightAware ADS-B
Wed 08:56:52 PM 27.4810 -82.9580 282° West 373 429 36,000 -75 Level FlightAware ADS-B
Wed 08:57:32 PM 27.4950 -83.0340 282° West 373 429 35,900  Descending FlightAware ADS-B
Wed 08:58:17 PM 27.5100 -83.1210 281° West 373 429 36,000 71 Climbing FlightAware ADS-B
Wed 08:58:57 PM 27.5240 -83.1970 282° West 373 429 36,000  Level FlightAware ADS-B
Wed 08:59:37 PM 27.5380 -83.2690 282° West 373 429 36,000  Level FlightAware ADS-B
Wed 09:00:22 PM 27.5540 -83.3580 281° West 372 428 36,000  Level FlightAware ADS-B
Wed 09:01:07 PM 27.5690 -83.4440 281° West 371 427 36,000  Level FlightAware ADS-B
Wed 09:01:47 PM 27.5820 -83.5170 281° West 371 427 36,000  Level FlightAware ADS-B
Wed 09:02:27 PM 27.5970 -83.5950 282° West 370 426 36,000  Level FlightAware ADS-B
Wed 09:03:12 PM 27.6110 -83.6780 281° West 369 425 36,000  Level FlightAware ADS-B
Wed 09:03:52 PM 27.6250 -83.7530 282° West 368 423 36,000  Level FlightAware ADS-B
Wed 09:04:37 PM 27.6400 -83.8400 281° West 366 421 36,000  Level FlightAware ADS-B
Wed 09:05:12 PM 27.6510 -83.9030 281° West 364 419 36,000  Level FlightAware ADS-B
Wed 09:05:57 PM 27.6660 -83.9860 282° West 364 419 36,000  Level FlightAware ADS-B
Wed 09:06:42 PM 27.6810 -84.0720 281° West 365 420 36,000  Level FlightAware ADS-B
Wed 09:07:22 PM 27.6940 -84.1440 282° West 365 420 36,000  Level FlightAware ADS-B
Wed 09:08:02 PM 27.7070 -84.2200 281° West 366 421 36,000  Level FlightAware ADS-B
Wed 09:08:42 PM 27.7200 -84.2940 281° West 367 422 36,000  Level FlightAware ADS-B
Wed 09:09:27 PM 27.7350 -84.3820 281° West 368 423 36,000  Level FlightAware ADS-B
Wed 09:10:12 PM 27.7500 -84.4660 281° West 368 423 36,000  Level FlightAware ADS-B
Wed 09:10:52 PM 27.7630 -84.5410 281° West 366 421 36,000  Level FlightAware ADS-B
Wed 09:11:37 PM 27.7770 -84.6250 281° West 365 420 36,000  Level FlightAware ADS-B
Wed 09:12:17 PM 27.7910 -84.7020 282° West 365 420 36,000  Level FlightAware ADS-B
Wed 09:12:57 PM 27.8030 -84.7740 281° West 367 422 36,000  Level FlightAware ADS-B
Wed 09:13:37 PM 27.8150 -84.8490 280° West 367 422 36,000  Level FlightAware ADS-B
Wed 09:14:22 PM 27.8310 -84.9290 283° West 365 420 36,000  Level FlightAware ADS-B
Wed 09:15:07 PM 27.8620 -85.0080 294° West 361 415 36,000  Level FlightAware ADS-B
Wed 09:15:42 PM 27.8880 -85.0690 296° West 360 414 36,000  Level FlightAware ADS-B
Wed 09:16:27 PM 27.9200 -85.1460 295° West 374 430 36,000  Level FlightAware ADS-B
Wed 09:17:12 PM 27.9530 -85.2260 295° West 382 440 36,000  Level FlightAware ADS-B
Wed 09:17:42 PM 27.9740 -85.2740 296° West 382 440 36,000  Level FlightAware ADS-B
Wed 09:18:47 PM 28.0220 -85.3890 295° West 381 438 36,000  Level FlightAware ADS-B
Wed 09:19:27 PM 28.0470 -85.4510 295° West 381 438 36,000  Level FlightAware ADS-B
Wed 09:20:07 PM 28.0720 -85.5120 295° West 381 438 36,000  Level FlightAware ADS-B
Wed 09:20:57 PM 28.1040 -85.5890 295° West 381 438 36,000  Level FlightAware ADS-B
Wed 09:21:37 PM 28.1290 -85.6510 295° West 381 438 36,000  Level FlightAware ADS-B
Wed 09:22:17 PM 28.1550 -85.7120 296° West 381 438 36,000  Level FlightAware ADS-B
Wed 09:22:57 PM 28.1800 -85.7740 295° West 381 438 36,000  Level FlightAware ADS-B
Wed 09:23:37 PM 28.2050 -85.8360 295° West 381 438 36,000  Level FlightAware ADS-B
Wed 09:24:27 PM 28.2370 -85.9130 295° West 381 438 36,000  Level FlightAware ADS-B
Wed 09:25:07 PM 28.2620 -85.9740 295° West 381 438 36,000  Level FlightAware ADS-B
Wed 09:25:47 PM 28.2880 -86.0360 295° West 381 438 36,000  Level FlightAware ADS-B
Wed 09:26:27 PM 28.3130 -86.0980 295° West 381 438 36,000  Level FlightAware ADS-B
Wed 09:27:07 PM 28.3380 -86.1590 295° West 381 438 36,000  Level FlightAware ADS-B
Wed 09:27:57 PM 28.3700 -86.2370 295° West 381 438 36,000 43 Level FlightAware ADS-B
Wed 09:29:27 PM 28.4928 -86.5344 294° West 365 420 36,100 360 Climbing Jacksonville Center
Wed 09:30:27 PM 28.5356 -86.6378 295° West 365 420 36,900 400 Climbing Jacksonville Center
Wed 09:31:27 PM 28.5744 -86.7361 294° West 354 407 36,900  Level Jacksonville Center
Wed 09:32:27 PM 28.6172 -86.8392 295° West 354 407 36,900 50 Level Jacksonville Center
Wed 09:33:27 PM 28.6619 -86.9453 296° West 360 414 37,000  Climbing Jacksonville Center
Wed 09:34:27 PM 28.7025 -87.0461 295° West 360 414 36,900  Descending Jacksonville Center
Wed 09:35:00 PM 28.6557 -86.9640 294° West  Level FlightAware Approximate
Wed 09:36:29 PM 28.7881 -87.2503 296° West 365 420 37,000  Level Houston Center
Wed 09:37:30 PM 28.8336 -87.3483 298° West 367 422 37,000  Level Houston Center
Wed 09:38:31 PM 28.8881 -87.4536 301° West 368 423 37,000 -49 Level Houston Center
Wed 09:39:32 PM 28.9400 -87.5550 300° West 369 425 36,900 -278 Descending Houston Center
Wed 09:45:42 PM 29.2630 -88.2110 300° West 395 455 35,000 -311 Descending FlightAware ADS-B
Wed 09:46:17 PM 29.2900 -88.2680 299° West 396 456 34,800 -632 Descending FlightAware ADS-B
Wed 09:47:17 PM 29.3450 -88.3790 300° West 404 465 34,000 -457 Descending FlightAware ADS-B
Wed 09:48:02 PM 29.3900 -88.4710 299° West 403 464 34,000  Level FlightAware ADS-B
Wed 09:48:37 PM 29.4210 -88.5350 299° West 398 458 34,000  Level FlightAware ADS-B
Wed 09:49:22 PM 29.4600 -88.6150 299° West 398 458 34,000  Level FlightAware ADS-B
Wed 09:50:02 PM 29.4970 -88.6910 299° West 398 458 34,000  Level FlightAware ADS-B
Wed 09:50:37 PM 29.5280 -88.7560 299° West 397 457 34,000  Level FlightAware ADS-B
Wed 09:51:22 PM 29.5640 -88.8320 299° West 397 457 34,000  Level FlightAware ADS-B
Wed 09:52:07 PM 29.6110 -88.9270 300° West 400 460 34,000  Level FlightAware ADS-B
Wed 09:52:52 PM 29.6450 -89.0000 298° West 400 460 34,000  Level FlightAware ADS-B
Wed 09:53:32 PM 29.6740 -89.0640 298° West 400 460 34,000  Level FlightAware ADS-B
Wed 09:54:12 PM 29.7040 -89.1280 298° West 400 460 34,000  Level FlightAware ADS-B
Wed 09:55:02 PM 29.7410 -89.2080 298° West 400 460 34,000  Level FlightAware ADS-B
Wed 09:55:32 PM 29.7900 -89.3000 302° West 399 459 34,000  Level FlightAware ADS-B
Wed 09:56:17 PM 29.8250 -89.3770 298° West 399 459 34,000  Level FlightAware ADS-B
Wed 09:57:07 PM 29.8620 -89.4570 298° West 399 459 34,000  Level FlightAware ADS-B
Wed 09:57:47 PM 29.9130 -89.5590 300° West 394 453 34,000  Level FlightAware ADS-B
Wed 09:58:27 PM 29.9460 -89.6280 299° West 394 453 34,000  Level FlightAware ADS-B
Wed 09:59:22 PM 29.9940 -89.7300 299° West 396 456 34,000  Level FlightAware ADS-B
Wed 10:00:32 PM 30.0510 -89.8510 299° West 398 458 34,000  Level FlightAware ADS-B
Wed 10:01:17 PM 30.0970 -89.9470 299° West 398 458 34,000  Level FlightAware ADS-B
Wed 10:02:02 PM 30.1340 -90.0270 298° West 398 458 34,000  Level FlightAware ADS-B
Wed 10:02:37 PM 30.1660 -90.0950 299° West 400 460 34,000  Level FlightAware ADS-B
Wed 10:03:27 PM 30.2080 -90.1850 298° West 401 461 34,000  Level FlightAware ADS-B
Wed 10:04:02 PM 30.2390 -90.2520 298° West 402 463 34,000  Level FlightAware ADS-B
Wed 10:06:42 PM 30.3770 -90.5500 298° West 400 460 34,000  Level FlightAware ADS-B
Wed 10:07:12 PM 30.4030 -90.6050 299° West 401 461 34,000  Level FlightAware ADS-B
Wed 10:08:27 PM 30.4690 -90.7480 298° West 401 461 34,000  Level FlightAware ADS-B
Wed 10:09:12 PM 30.5110 -90.8400 298° West 400 460 34,000  Level FlightAware ADS-B
Wed 10:09:52 PM 30.5460 -90.9150 298° West 398 458 34,000  Level FlightAware ADS-B
Wed 10:10:37 PM 30.5810 -90.9950 297° West 398 458 34,000  Level FlightAware ADS-B
Wed 10:11:11 PM 30.6170 -91.0712 299° West 397 457 34,000 -65 Level FlightAware ADS-B
Wed 10:12:09 PM 30.6606 -91.1697 299° West 398 458 33,900 -50 Descending Houston Center
Wed 10:13:11 PM 30.7117 -91.2819 298° West 396 456 33,900 49 Level Houston Center
Wed 10:14:12 PM 30.7642 -91.3983 298° West 394 453 34,000 49 Climbing Houston Center
Wed 10:15:13 PM 30.8144 -91.5111 297° West 395 455 34,000  Level Houston Center
Wed 10:20:39 PM 31.0963 -92.1367 297° West 393 452 34,000  Level FlightAware ADS-B
Wed 10:21:09 PM 31.1210 -92.1926 297° West 392 451 34,000  Level FlightAware ADS-B
Wed 10:23:59 PM 31.2609 -92.5110 297° West 390 449 34,000  Level FlightAware ADS-B
Wed 10:24:36 PM 31.2879 -92.5826 294° West 389 448 34,000  Level FlightAware ADS-B
Wed 10:25:07 PM 31.3102 -92.6418 294° West 389 448 34,000  Level FlightAware ADS-B
Wed 10:25:37 PM 31.3325 -92.7007 294° West 388 447 34,000  Level FlightAware ADS-B
Wed 10:26:10 PM 31.3565 -92.7641 294° West 389 448 34,000  Level FlightAware ADS-B
Wed 10:26:42 PM 31.3792 -92.8244 294° West 389 448 34,000  Level FlightAware ADS-B
Wed 10:27:12 PM 31.4012 -92.8829 294° West 394 453 34,000  Level FlightAware ADS-B
Wed 10:27:43 PM 31.4236 -92.9425 294° West 395 455 34,000  Level FlightAware ADS-B
Wed 10:28:14 PM 31.4466 -93.0040 294° West 395 455 34,000  Level FlightAware ADS-B
Wed 10:28:55 PM 31.4762 -93.0835 294° West 395 455 34,000  Level FlightAware ADS-B
Wed 10:29:28 PM 31.5006 -93.1486 294° West 395 455 34,000  Level FlightAware ADS-B
Wed 10:30:26 PM 31.5432 -93.2627 294° West 394 453 34,000  Level FlightAware ADS-B
Wed 10:30:58 PM 31.5666 -93.3260 293° West 393 452 34,000  Level FlightAware ADS-B
Wed 10:31:30 PM 31.5897 -93.3884 294° West 393 452 34,000  Level FlightAware ADS-B
Wed 10:32:01 PM 31.6119 -93.4483 294° West 394 453 34,000  Level FlightAware ADS-B
Wed 10:32:32 PM 31.6339 -93.5076 294° West 393 452 34,000  Level FlightAware ADS-B
Wed 10:34:10 PM 31.7052 -93.7012 293° West 393 452 34,000  Level FlightAware ADS-B
Wed 10:34:41 PM 31.7271 -93.7611 293° West 392 451 34,000  Level FlightAware ADS-B
Wed 10:35:08 PM 31.7457 -93.8128 293° West 392 451 34,000  Level FlightAware ADS-B
Wed 10:35:24 PM 31.7539 -93.8458 286° West 389 448 34,000  Level FlightAware ADS-B
Wed 10:35:54 PM 31.7658 -93.9080 283° West 387 445 34,000  Level FlightAware ADS-B
Wed 10:36:24 PM 31.7780 -93.9700 283° West 388 447 34,000  Level FlightAware ADS-B
Wed 10:36:54 PM 31.7900 -94.0310 283° West 387 445 34,000  Level FlightAware ADS-B
Wed 10:37:25 PM 31.8022 -94.0933 283° West 388 447 34,000  Level FlightAware ADS-B
Wed 10:37:43 PM 31.8094 -94.1299 283° West 388 447 34,000  Level FlightAware ADS-B
Wed 10:38:00 PM 31.8165 -94.1661 283° West 388 447 34,000  Level FlightAware ADS-B
Wed 10:38:20 PM 31.8242 -94.2061 283° West 388 447 34,000  Level FlightAware ADS-B
Wed 10:38:30 PM 31.8284 -94.2277 283° West 388 447 34,000  Level FlightAware ADS-B
Wed 10:38:54 PM 31.8376 -94.2752 283° West 388 447 34,000  Level FlightAware ADS-B
Wed 10:39:02 PM 31.8407 -94.2909 283° West 387 445 34,000  Level FlightAware ADS-B
Wed 10:39:25 PM 31.8503 -94.3405 283° West 387 445 34,000  Level FlightAware ADS-B
Wed 10:39:32 PM 31.8529 -94.3540 283° West 387 445 34,000  Level FlightAware ADS-B
Wed 10:40:00 PM 31.8639 -94.4110 283° West 386 444 34,000  Level FlightAware ADS-B
Wed 10:40:03 PM 31.8652 -94.4173 284° West 385 443 34,000  Level FlightAware ADS-B
Wed 10:40:30 PM 31.8756 -94.4714 283° West 385 443 34,000  Level FlightAware ADS-B
Wed 10:40:33 PM 31.8771 -94.4791 283° West 385 443 34,000  Level FlightAware ADS-B
Wed 10:41:02 PM 31.8883 -94.5374 283° West 385 443 34,000  Level FlightAware ADS-B
Wed 10:41:05 PM 31.8894 -94.5435 282° West 385 443 34,000  Level FlightAware ADS-B
Wed 10:41:36 PM 31.9014 -94.6061 283° West 385 443 34,000  Level FlightAware ADS-B
Wed 10:41:40 PM 31.9031 -94.6147 283° West 385 443 34,000  Level FlightAware ADS-B
Wed 10:42:07 PM 31.9135 -94.6685 283° West 385 443 34,000  Level FlightAware ADS-B
Wed 10:42:22 PM 31.9195 -94.6999 283° West 385 443 34,000  Level FlightAware ADS-B
Wed 10:42:37 PM 31.9256 -94.7317 283° West 385 443 34,000  Level FlightAware ADS-B
Wed 10:42:52 PM 31.9314 -94.7626 282° West 385 443 34,000  Level FlightAware ADS-B
Wed 10:43:09 PM 31.9379 -94.7965 283° West 385 443 34,000  Level FlightAware ADS-B
Wed 10:43:23 PM 31.9433 -94.8250 283° West 385 443 34,000  Level FlightAware ADS-B
Wed 10:43:39 PM 31.9496 -94.8585 283° West 385 443 34,000  Level FlightAware ADS-B
Wed 10:43:53 PM 31.9549 -94.8866 283° West 385 443 34,000  Level FlightAware ADS-B
Wed 10:44:10 PM 31.9612 -94.9204 282° West 384 442 34,000 -387 Level FlightAware ADS-B
Wed 10:44:24 PM 31.9668 -94.9497 283° West 384 442 33,800 -774 Descending FlightAware ADS-B
Wed 10:44:41 PM 31.9733 -94.9842 283° West 381 438 33,600 -800 Descending FlightAware ADS-B
Wed 10:44:54 PM 31.9784 -95.0112 283° West 381 438 33,400 -1,000 Descending FlightAware ADS-B
Wed 10:45:11 PM 31.9848 -95.0459 282° West 384 442 33,100 -1,029 Descending FlightAware ADS-B
Wed 10:45:29 PM 31.9918 -95.0830 283° West 386 444 32,800 -968 Descending FlightAware ADS-B
Wed 10:45:42 PM 31.9964 -95.1073 283° West 387 445 32,600 -938 Descending FlightAware ADS-B
Wed 10:46:01 PM 32.0039 -95.1473 282° West 386 444 32,300 -1,000 Descending FlightAware ADS-B
Wed 10:46:12 PM 32.0083 -95.1710 282° West 385 443 32,100 -1,000 Descending FlightAware ADS-B
Wed 10:46:37 PM 32.0177 -95.2213 282° West 384 442 31,700 -938 Descending FlightAware ADS-B
Wed 10:46:44 PM 32.0202 -95.2353 282° West 383 441 31,600 -1,000 Descending FlightAware ADS-B
Wed 10:47:07 PM 32.0290 -95.2827 282° West 380 437 31,200 -1,059 Descending FlightAware ADS-B
Wed 10:47:18 PM 32.0330 -95.3041 282° West 379 436 31,000 -968 Descending FlightAware ADS-B
Wed 10:47:38 PM 32.0403 -95.3441 282° West 376 433 30,700 -968 Descending FlightAware ADS-B
Wed 10:47:49 PM 32.0443 -95.3658 282° West 374 430 30,500 -955 Descending FlightAware ADS-B
Wed 10:48:22 PM 32.0561 -95.4296 282° West 371 427 30,000 -923 Descending FlightAware ADS-B
Wed 10:48:28 PM 32.0585 -95.4425 282° West 372 428 29,900 -1,067 Descending FlightAware ADS-B
Wed 10:49:07 PM 32.0727 -95.5199 282° West 368 423 29,200 -1,448 Descending FlightAware ADS-B
Wed 10:49:26 PM 32.0794 -95.5571 282° West 369 425 28,500 -2,000 Descending FlightAware ADS-B
Wed 10:49:40 PM 32.0840 -95.5842 281° West 367 422 28,100 -1,935 Descending FlightAware ADS-B
Wed 10:49:57 PM 32.0893 -95.6173 281° West 363 418 27,500 -2,143 Descending FlightAware ADS-B
Wed 10:50:22 PM 32.0969 -95.6650 281° West 362 417 26,600 -2,118 Descending FlightAware ADS-B
Wed 10:50:31 PM 32.0998 -95.6833 281° West 360 414 26,300 -2,200 Descending FlightAware ADS-B
Wed 10:50:52 PM 32.1063 -95.7238 281° West 358 412 25,500 -2,129 Descending FlightAware ADS-B
Wed 10:51:02 PM 32.1092 -95.7415 281° West 358 412 25,200 -2,200 Descending FlightAware ADS-B
Wed 10:51:22 PM 32.1156 -95.7813 281° West 358 412 24,400 -2,400 Descending FlightAware ADS-B
Wed 10:51:32 PM 32.1186 -95.8003 281° West 357 411 24,000 -2,195 Descending FlightAware ADS-B
Wed 10:52:03 PM 32.1282 -95.8589 281° West 357 411 22,900 -2,233 Descending FlightAware ADS-B
Wed 10:52:15 PM 32.1319 -95.8817 281° West 357 411 22,400 -2,400 Descending FlightAware ADS-B
Wed 10:52:33 PM 32.1376 -95.9171 281° West 356 410 21,700 -2,229 Descending FlightAware ADS-B
Wed 10:52:50 PM 32.1426 -95.9487 281° West 356 410 21,100 -2,063 Descending FlightAware ADS-B
Wed 10:53:05 PM 32.1473 -95.9775 281° West 357 411 20,600 -2,118 Descending FlightAware ADS-B
Wed 10:53:24 PM 32.1531 -96.0136 281° West 356 410 19,900 -2,250 Descending FlightAware ADS-B
Wed 10:53:37 PM 32.1571 -96.0388 281° West 356 410 19,400 -2,233 Descending FlightAware ADS-B
Wed 10:54:07 PM 32.1660 -96.0947 281° West 348 400 18,300 -2,333 Descending FlightAware ADS-B
Wed 10:54:13 PM 32.1677 -96.1054 281° West 356 410 18,000 -2,516 Descending FlightAware ADS-B
Wed 10:54:38 PM 32.1754 -96.1529 281° West 349 402 17,000 -2,308 Descending FlightAware ADS-B
Wed 10:55:05 PM 32.1834 -96.2017 281° West 340 391 16,000 -2,294 Descending FlightAware ADS-B
Wed 10:55:12 PM 32.1872 -96.2139 290° West 336 387 15,700 -2,143 Descending FlightAware ADS-B
Wed 10:55:19 PM 32.1927 -96.2250 300° West 336 387 15,500 -2,000 Descending FlightAware ADS-B
Wed 10:56:12 PM 32.2480 -96.2920 314° West 335 386 13,700 -2,000 Descending FlightAware ADS-B
Wed 10:56:52 PM 32.2940 -96.3450 316° Northwest 330 380 12,400 -1,650 Descending FlightAware ADS-B
Wed 10:57:32 PM 32.3340 -96.3930 315° West 297 342 11,500 -1,200 Descending FlightAware ADS-B
Wed 10:58:17 PM 32.3720 -96.4450 311° West 273 314 10,700 -635 Descending FlightAware ADS-B
Wed 10:58:57 PM 32.4040 -96.4930 308° West 277 319 10,600 -1,029 Descending FlightAware ADS-B
Wed 10:59:27 PM 32.4280 -96.5290 308° West 270 311 9,500 -2,133 Descending FlightAware ADS-B
Wed 10:59:42 PM 32.4380 -96.5440 308° West 268 308 9,000 -1,800 Descending FlightAware ADS-B
Wed 11:00:07 PM 32.4580 -96.5740 308° West 269 310 8,300 -1,527 Descending FlightAware ADS-B
Wed 11:00:37 PM 32.4810 -96.6100 307° West 263 303 7,600 -1,467 Descending FlightAware ADS-B
Wed 11:00:52 PM 32.4910 -96.6260 307° West 262 302 7,200 -1,950 Descending FlightAware ADS-B
Wed 11:01:17 PM 32.5100 -96.6550 308° West 270 311 6,300 -2,250 Descending FlightAware ADS-B
Wed 11:01:32 PM 32.5220 -96.6730 308° West 280 322 5,700 -1,733 Descending FlightAware ADS-B
Wed 11:02:02 PM 32.5460 -96.7100 308° West 278 320 5,000 -1,091 Descending FlightAware ADS-B
Wed 11:02:27 PM 32.5650 -96.7390 308° West 273 314 4,700 -327 Descending FlightAware ADS-B
Wed 11:02:57 PM 32.5890 -96.7760 308° West 278 320 4,700  Level FlightAware ADS-B
Wed 11:03:12 PM 32.6010 -96.7950 307° West 277 319 4,700  Level FlightAware ADS-B
Wed 11:03:37 PM 32.6200 -96.8240 308° West 276 318 4,700  Level FlightAware ADS-B
Wed 11:04:07 PM 32.6430 -96.8600 307° West 277 319 4,700 -218 Level FlightAware ADS-B
Wed 11:04:32 PM 32.6630 -96.8880 310° West 275 316 4,500 -1,200 Descending FlightAware ADS-B
Wed 11:05:02 PM 32.6890 -96.9220 312° West 272 313 3,600 -1,745 Descending FlightAware ADS-B
Wed 11:05:27 PM 32.7110 -96.9490 314° West 263 303 2,900 -1,350 Descending FlightAware ADS-B
Wed 11:05:42 PM 32.7220 -96.9630 313° West 256 295 2,700 -400 Descending FlightAware ADS-B
Wed 11:06:12 PM 32.7460 -96.9930 314° West 223 257 2,600 -300 Descending FlightAware ADS-B
Wed 11:06:42 PM 32.7650 -97.0170 313° West 198 228 2,400 -436 Descending FlightAware ADS-B
Wed 11:07:07 PM 32.7830 -97.0270 335° Northwest 152 175 2,200 -771 Descending FlightAware ADS-B
Wed 11:07:52 PM 32.8100 -97.0260 North 136 157 1,500 -857 Descending FlightAware ADS-B
Wed 11:08:17 PM 32.8260 -97.0260 360° North 135 155 1,200 -667 Descending FlightAware ADS-B
Wed 11:08:37 PM 32.8390 -97.0260 360° North 135 155 1,000 -267 Descending FlightAware ADS-B
Wed 11:09:02 PM 32.8530 -97.0260 360° North 135 155 1,000 -462 Level FlightAware ADS-B
Wed 11:09:42 PM 32.8808 -97.0250 360° North 142 163 500 -750 Descending Fort Worth Center
Wed 11:11:00 PM 32.8833 -97.0333 308° West  Level FlightAware Approximate
Wed 11:18:00 PM 32.8968 -97.0380 308° West  Level Estimated

Login

Don't have an account? Register now (free) for customized features, flight alerts, and more!